createdAt,value
2017-05-16T00:00:53.229Z,4.40
2017-05-16T00:03:19.851Z,4.25
2017-05-16T00:05:46.480Z,3.87
2017-05-16T00:08:13.128Z,3.78
2017-05-16T00:10:39.743Z,4.47
2017-05-16T00:13:06.383Z,4.05
2017-05-16T00:15:32.997Z,4.08
2017-05-16T00:17:59.613Z,4.03
2017-05-16T00:20:26.255Z,4.47
2017-05-16T00:22:52.868Z,4.28
2017-05-16T00:25:19.495Z,4.47
2017-05-16T00:27:46.135Z,4.02
2017-05-16T00:30:12.775Z,4.25
2017-05-16T00:32:39.389Z,3.98
2017-05-16T00:35:06.008Z,4.40
2017-05-16T00:37:32.631Z,4.20
2017-05-16T00:39:59.253Z,4.58
2017-05-16T00:42:25.884Z,4.03
2017-05-16T00:44:52.505Z,4.57
2017-05-16T00:47:19.136Z,5.65
2017-05-16T00:49:45.792Z,5.38
2017-05-16T00:52:12.412Z,6.38
2017-05-16T00:54:39.035Z,5.35
2017-05-16T00:57:05.664Z,5.98
2017-05-16T00:59:32.301Z,4.87
2017-05-16T01:01:58.940Z,5.28
2017-05-16T01:04:25.561Z,5.93
2017-05-16T01:06:52.196Z,5.05
2017-05-16T01:09:18.816Z,5.63
2017-05-16T01:11:45.445Z,4.93
2017-05-16T01:14:12.080Z,6.20
2017-05-16T01:16:38.708Z,5.65
2017-05-16T01:19:05.347Z,5.80
2017-05-16T01:21:31.974Z,6.87
2017-05-16T01:23:58.583Z,6.10
2017-05-16T01:26:25.235Z,5.32
2017-05-16T01:28:51.848Z,5.10
2017-05-16T01:31:18.472Z,5.40
2017-05-16T01:33:45.108Z,5.22
2017-05-16T01:36:11.747Z,4.43
2017-05-16T01:38:38.384Z,5.37
2017-05-16T01:41:05.000Z,4.20
2017-05-16T01:43:31.635Z,5.28
2017-05-16T01:45:58.252Z,4.15
2017-05-16T01:48:24.890Z,4.35
2017-05-16T01:50:51.512Z,5.57
2017-05-16T01:53:18.123Z,5.05
2017-05-16T01:55:44.800Z,4.88
2017-05-16T01:58:11.417Z,4.80
2017-05-16T02:00:38.035Z,4.63
2017-05-16T02:03:04.676Z,4.38
2017-05-16T02:05:31.300Z,4.13
2017-05-16T02:07:57.908Z,4.53
2017-05-16T02:10:24.544Z,4.50
2017-05-16T02:12:51.176Z,4.93
2017-05-16T02:15:17.813Z,4.33
2017-05-16T02:17:44.437Z,4.40
2017-05-16T02:20:11.084Z,5.15
2017-05-16T02:22:37.703Z,4.62
2017-05-16T02:25:04.320Z,4.62
2017-05-16T02:27:30.953Z,5.35
2017-05-16T02:29:57.564Z,4.53
2017-05-16T02:32:24.455Z,4.57
2017-05-16T02:34:51.073Z,5.07
2017-05-16T02:37:17.688Z,5.70
2017-05-16T02:39:44.339Z,4.78
2017-05-16T02:42:10.956Z,5.62
2017-05-16T02:44:37.587Z,4.82
2017-05-16T02:47:04.220Z,5.38
2017-05-16T02:49:30.900Z,5.53
2017-05-16T02:51:57.511Z,4.45
2017-05-16T02:54:24.158Z,6.22
2017-05-16T02:56:50.796Z,4.58
2017-05-16T02:59:17.433Z,5.22
2017-05-16T03:01:44.058Z,6.85
2017-05-16T03:04:10.692Z,5.17
2017-05-16T03:06:37.318Z,5.60
2017-05-16T03:09:03.948Z,5.23
2017-05-16T03:11:30.568Z,5.47
2017-05-16T03:13:57.205Z,4.55
2017-05-16T03:16:23.823Z,6.03
2017-05-16T03:18:50.473Z,4.73
2017-05-16T03:21:17.397Z,5.35
2017-05-16T03:23:44.048Z,4.37
2017-05-16T03:26:10.697Z,6.47
2017-05-16T03:28:37.314Z,5.50
2017-05-16T03:31:03.958Z,5.40
2017-05-16T03:33:30.568Z,5.18
2017-05-16T03:35:57.201Z,5.22
2017-05-16T03:38:23.817Z,5.60
2017-05-16T03:40:50.436Z,6.10
2017-05-16T03:43:17.076Z,5.35
2017-05-16T03:45:43.692Z,5.90
2017-05-16T03:48:10.312Z,5.02
2017-05-16T03:50:36.940Z,4.52
2017-05-16T03:53:03.560Z,5.00
2017-05-16T03:55:30.203Z,4.92
2017-05-16T03:57:56.822Z,5.28
2017-05-16T04:00:23.446Z,4.77
2017-05-16T04:02:50.077Z,4.75
2017-05-16T04:05:16.700Z,5.68
2017-05-16T04:07:43.341Z,5.52
2017-05-16T04:10:09.959Z,5.12
2017-05-16T04:12:36.572Z,5.32
2017-05-16T04:15:03.227Z,5.37
2017-05-16T04:17:29.848Z,5.52
2017-05-16T04:19:56.484Z,5.58
2017-05-16T04:22:23.104Z,7.13
2017-05-16T04:24:49.753Z,5.82
2017-05-16T04:27:16.385Z,5.75
2017-05-16T04:29:43.021Z,4.77
2017-05-16T04:32:09.656Z,5.70
2017-05-16T04:34:36.276Z,4.80
2017-05-16T04:37:02.916Z,6.07
2017-05-16T04:39:29.562Z,5.52
2017-05-16T04:41:57.437Z,5.08
2017-05-16T04:44:24.083Z,4.90
2017-05-16T04:46:50.705Z,5.60
2017-05-16T04:49:17.332Z,4.65
2017-05-16T04:51:43.976Z,4.65
2017-05-16T04:54:10.615Z,5.55
2017-05-16T04:56:37.256Z,5.43
2017-05-16T04:59:03.872Z,6.02
2017-05-16T05:01:30.504Z,4.80
2017-05-16T05:03:57.116Z,6.67
2017-05-16T05:06:24.460Z,5.67
2017-05-16T05:08:51.088Z,5.57
2017-05-16T05:11:17.948Z,6.60
2017-05-16T05:13:44.583Z,5.42
2017-05-16T05:16:11.200Z,6.57
2017-05-16T05:18:37.822Z,5.10
2017-05-16T05:21:04.445Z,6.85
2017-05-16T05:23:31.076Z,5.45
2017-05-16T05:25:57.724Z,5.45
2017-05-16T05:28:24.351Z,7.48
2017-05-16T05:30:50.977Z,6.02
2017-05-16T05:33:17.643Z,6.37
2017-05-16T05:35:44.281Z,6.23
2017-05-16T05:38:10.916Z,5.13
2017-05-16T05:40:37.532Z,5.82
2017-05-16T05:43:04.164Z,5.58
2017-05-16T05:45:30.785Z,5.32
2017-05-16T05:47:57.424Z,6.45
2017-05-16T05:50:24.048Z,6.12
2017-05-16T05:52:50.772Z,5.90
2017-05-16T05:55:17.404Z,6.33
2017-05-16T05:57:44.044Z,6.63
2017-05-16T06:00:10.676Z,5.25
2017-05-16T06:02:37.292Z,6.77
2017-05-16T06:05:03.924Z,6.50
2017-05-16T06:07:30.544Z,6.58
2017-05-16T06:09:57.177Z,5.57
2017-05-16T06:12:23.817Z,5.97
2017-05-16T06:14:50.433Z,6.02
2017-05-16T06:17:17.046Z,4.63
2017-05-16T06:19:43.688Z,5.67
2017-05-16T06:22:10.315Z,5.43
2017-05-16T06:24:36.956Z,6.08
2017-05-16T06:27:03.604Z,5.93
2017-05-16T06:29:30.219Z,5.15
2017-05-16T06:31:56.844Z,5.80
2017-05-16T06:34:23.484Z,5.52
2017-05-16T06:36:50.121Z,6.60
2017-05-16T06:39:16.772Z,5.70
2017-05-16T06:41:43.396Z,5.73
2017-05-16T06:44:10.039Z,5.80
2017-05-16T06:46:36.666Z,6.02
2017-05-16T06:49:03.284Z,4.58
2017-05-16T06:51:29.911Z,5.34
2017-05-16T06:53:56.536Z,5.20
2017-05-16T06:56:23.939Z,4.72
2017-05-16T06:58:50.559Z,4.66
2017-05-16T07:01:17.692Z,5.54
2017-05-16T07:03:44.308Z,4.06
2017-05-16T07:06:10.919Z,4.40
2017-05-16T07:08:37.554Z,4.28
2017-05-16T07:11:04.176Z,4.24
2017-05-16T07:13:30.801Z,4.56
2017-05-16T07:15:57.447Z,4.28
2017-05-16T07:18:24.065Z,4.38
2017-05-16T07:20:50.704Z,3.20
2017-05-16T07:23:17.321Z,3.52
2017-05-16T07:25:43.949Z,3.88
2017-05-16T07:28:10.586Z,3.84
2017-05-16T07:30:37.209Z,2.82
2017-05-16T07:33:03.903Z,3.14
2017-05-16T07:35:30.515Z,2.28
2017-05-16T07:37:57.150Z,2.76
2017-05-16T07:40:23.786Z,2.10
2017-05-16T07:42:50.416Z,2.66
2017-05-16T07:45:17.027Z,2.46
2017-05-16T07:47:43.639Z,1.62
2017-05-16T07:50:10.274Z,1.50
2017-05-16T07:52:36.892Z,1.78
2017-05-16T07:55:03.524Z,1.32
2017-05-16T07:57:30.137Z,2.26
2017-05-16T07:59:56.784Z,1.76
2017-05-16T08:02:23.395Z,1.28
2017-05-16T08:04:50.032Z,1.68
2017-05-16T08:07:16.647Z,1.14
2017-05-16T08:09:43.258Z,1.30
2017-05-16T08:12:09.892Z,1.38
2017-05-16T08:14:36.520Z,1.30
2017-05-16T08:17:03.163Z,1.10
2017-05-16T08:19:29.842Z,1.52
2017-05-16T08:21:56.472Z,1.30
2017-05-16T08:24:23.085Z,1.40
2017-05-16T08:26:49.760Z,1.12
2017-05-16T08:29:16.371Z,1.26
2017-05-16T08:31:43.004Z,1.10
2017-05-16T08:34:09.678Z,1.06
2017-05-16T08:36:36.313Z,1.06
2017-05-16T08:39:02.932Z,1.14
2017-05-16T08:41:29.560Z,1.52
2017-05-16T08:43:56.213Z,1.30
2017-05-16T08:46:22.831Z,1.10
2017-05-16T08:48:49.472Z,1.22
2017-05-16T08:51:16.105Z,1.02
2017-05-16T08:53:42.717Z,1.10
2017-05-16T08:56:09.357Z,1.26
2017-05-16T08:58:35.977Z,1.30
2017-05-16T09:01:02.616Z,1.30
2017-05-16T09:03:29.234Z,1.28
2017-05-16T09:05:55.888Z,0.98
2017-05-16T09:08:22.534Z,1.22
2017-05-16T09:10:49.156Z,1.50
2017-05-16T09:13:15.791Z,1.38
2017-05-16T09:15:42.400Z,1.30
2017-05-16T09:18:09.036Z,1.10
2017-05-16T09:20:35.651Z,1.12
2017-05-16T09:23:02.291Z,1.08
2017-05-16T09:25:28.903Z,1.54
2017-05-16T09:27:55.549Z,1.40
2017-05-16T09:30:22.180Z,1.10
2017-05-16T09:32:48.795Z,1.52
2017-05-16T09:35:15.428Z,1.14
2017-05-16T09:37:42.047Z,1.00
2017-05-16T09:40:08.675Z,1.00
2017-05-16T09:42:35.305Z,1.38
2017-05-16T09:45:01.930Z,1.28
2017-05-16T09:47:28.580Z,1.20
2017-05-16T09:49:55.196Z,1.04
2017-05-16T09:52:21.835Z,1.20
2017-05-16T09:54:48.459Z,1.12
2017-05-16T09:57:15.105Z,1.32
2017-05-16T09:59:41.748Z,1.42
2017-05-16T10:02:08.372Z,1.28
2017-05-16T10:04:35.018Z,1.50
2017-05-16T10:07:01.641Z,1.30
2017-05-16T10:09:28.279Z,1.04
2017-05-16T10:11:54.911Z,1.20
2017-05-16T10:14:21.536Z,1.40
2017-05-16T10:16:48.159Z,1.38
2017-05-16T10:19:14.797Z,1.58
2017-05-16T10:21:41.409Z,1.48
2017-05-16T10:24:08.043Z,1.62
2017-05-16T10:26:34.777Z,1.18
2017-05-16T10:29:01.412Z,1.28
2017-05-16T10:31:28.049Z,1.20
2017-05-16T10:33:54.691Z,1.66
2017-05-16T10:36:21.344Z,1.14
2017-05-16T10:38:48.075Z,1.38
2017-05-16T10:41:14.815Z,1.30
2017-05-16T10:43:41.423Z,1.20
2017-05-16T10:46:08.053Z,1.38
2017-05-16T10:48:34.733Z,1.38
2017-05-16T10:51:01.364Z,1.20
2017-05-16T10:53:27.978Z,1.30
2017-05-16T10:55:54.650Z,1.00
2017-05-16T10:58:21.262Z,1.24
2017-05-16T11:00:47.895Z,1.10
2017-05-16T11:03:14.515Z,1.34
2017-05-16T11:05:41.413Z,1.20
2017-05-16T11:08:08.043Z,1.10
2017-05-16T11:10:34.690Z,1.14
2017-05-16T11:13:01.313Z,1.20
2017-05-16T11:15:27.952Z,1.10
2017-05-16T11:17:54.572Z,1.58
2017-05-16T11:20:21.203Z,1.04
2017-05-16T11:22:47.825Z,1.08
2017-05-16T11:25:14.464Z,1.10
2017-05-16T11:27:41.091Z,1.56
2017-05-16T11:30:07.732Z,1.10
2017-05-16T11:32:34.341Z,1.18
2017-05-16T11:35:00.970Z,1.10
2017-05-16T11:37:27.608Z,1.10
2017-05-16T11:39:54.236Z,1.00
2017-05-16T11:42:20.864Z,1.22
2017-05-16T11:44:47.479Z,1.40
2017-05-16T11:47:14.117Z,1.10
2017-05-16T11:49:40.735Z,1.02
2017-05-16T11:52:07.358Z,1.14
2017-05-16T11:54:33.991Z,1.06
2017-05-16T11:57:00.623Z,1.02
2017-05-16T11:59:27.237Z,1.20
2017-05-16T12:01:53.855Z,0.92
2017-05-16T12:04:20.483Z,1.20
2017-05-16T12:06:47.104Z,1.08
2017-05-16T12:09:13.732Z,1.10
2017-05-16T12:11:40.340Z,1.10
2017-05-16T12:14:06.981Z,1.06
2017-05-16T12:16:33.591Z,1.10
2017-05-16T12:19:00.231Z,1.38
2017-05-16T12:21:26.869Z,1.04
2017-05-16T12:23:53.512Z,1.20
2017-05-16T12:26:20.127Z,1.18
2017-05-16T12:28:46.760Z,1.30
2017-05-16T12:31:13.395Z,1.20
2017-05-16T12:33:40.013Z,1.00
2017-05-16T12:36:06.665Z,1.32
2017-05-16T12:38:33.285Z,1.16
2017-05-16T12:40:59.934Z,1.24
2017-05-16T12:43:26.556Z,0.90
2017-05-16T12:45:53.201Z,1.10
2017-05-16T12:48:19.850Z,1.44
2017-05-16T12:50:46.481Z,1.28
2017-05-16T12:53:13.099Z,1.10
2017-05-16T12:55:39.740Z,0.96
2017-05-16T12:58:06.373Z,1.20
2017-05-16T13:00:33.007Z,1.20
2017-05-16T13:02:59.637Z,1.16
2017-05-16T13:05:26.267Z,1.30
2017-05-16T13:07:52.912Z,1.40
2017-05-16T13:10:19.520Z,1.06
2017-05-16T13:12:46.142Z,1.14
2017-05-16T13:15:12.778Z,1.18
2017-05-16T13:17:39.424Z,0.96
2017-05-16T13:20:06.053Z,1.24
2017-05-16T13:22:32.668Z,1.10
2017-05-16T13:24:59.282Z,0.90
2017-05-16T13:27:25.916Z,1.10
2017-05-16T13:29:52.525Z,0.90
2017-05-16T13:32:19.176Z,2.00
2017-05-16T13:34:45.808Z,1.20
2017-05-16T13:37:12.432Z,1.20
2017-05-16T13:39:39.066Z,1.10
2017-05-16T13:42:05.686Z,1.34
2017-05-16T13:44:32.312Z,1.10
2017-05-16T13:46:58.925Z,1.04
2017-05-16T13:49:25.560Z,1.04
2017-05-16T13:51:52.173Z,1.10
2017-05-16T13:54:18.804Z,1.30
2017-05-16T13:56:45.429Z,1.00
2017-05-16T13:59:12.077Z,1.30
2017-05-16T14:01:38.698Z,1.16
2017-05-16T14:04:05.333Z,1.60
2017-05-16T14:06:31.965Z,1.08
2017-05-16T14:08:58.591Z,1.30
2017-05-16T14:11:25.215Z,1.26
2017-05-16T14:13:51.855Z,1.08
2017-05-16T14:16:18.474Z,1.00
2017-05-16T14:18:45.100Z,1.44
2017-05-16T14:21:11.708Z,1.26
2017-05-16T14:23:38.341Z,0.80
2017-05-16T14:26:04.960Z,1.04
2017-05-16T14:28:31.600Z,1.00
2017-05-16T14:30:58.216Z,1.20
2017-05-16T14:33:24.935Z,1.30
2017-05-16T14:35:51.548Z,1.20
2017-05-16T14:38:18.175Z,1.42
2017-05-16T14:40:44.824Z,1.24
2017-05-16T14:43:11.443Z,1.20
2017-05-16T14:45:38.073Z,1.00
2017-05-16T14:48:04.700Z,1.00
2017-05-16T14:50:31.344Z,1.26
2017-05-16T14:52:58.957Z,1.10
2017-05-16T14:55:25.571Z,1.10
2017-05-16T14:57:52.203Z,1.10
2017-05-16T15:00:18.825Z,2.62
2017-05-16T15:02:45.488Z,28.44
2017-05-16T15:05:12.108Z,2.84
2017-05-16T15:07:38.729Z,1.50
2017-05-16T15:10:05.369Z,1.18
2017-05-16T15:12:31.991Z,1.06
2017-05-16T15:14:58.629Z,1.10
2017-05-16T15:17:25.248Z,1.40
2017-05-16T15:19:51.894Z,1.10
2017-05-16T15:22:18.504Z,1.20
2017-05-16T15:24:45.144Z,1.30
2017-05-16T15:27:11.757Z,1.30
2017-05-16T15:29:38.385Z,1.10
2017-05-16T15:32:05.004Z,1.08
2017-05-16T15:34:31.643Z,1.22
2017-05-16T15:36:58.262Z,1.10
2017-05-16T15:39:24.892Z,1.10
2017-05-16T15:41:51.524Z,1.10
2017-05-16T15:44:18.144Z,1.26
2017-05-16T15:46:44.819Z,1.50
2017-05-16T15:49:11.440Z,1.16
2017-05-16T15:51:38.079Z,1.30
2017-05-16T15:54:04.692Z,1.20
2017-05-16T15:56:31.307Z,0.96
2017-05-16T15:58:57.944Z,1.04
2017-05-16T16:01:24.585Z,1.22
2017-05-16T16:03:51.197Z,1.02
2017-05-16T16:06:17.844Z,1.30
2017-05-16T16:08:44.456Z,1.00
2017-05-16T16:11:11.076Z,1.30
2017-05-16T16:13:37.719Z,1.42
2017-05-16T16:16:04.336Z,1.30
2017-05-16T16:18:30.980Z,1.52
2017-05-16T16:20:57.611Z,1.26
2017-05-16T16:23:24.224Z,1.42
2017-05-16T16:25:50.858Z,1.20
2017-05-16T16:28:17.473Z,1.00
2017-05-16T16:30:44.105Z,1.30
2017-05-16T16:33:10.715Z,1.26
2017-05-16T16:35:37.368Z,1.10
2017-05-16T16:38:03.984Z,1.26
2017-05-16T16:40:30.624Z,1.16
2017-05-16T16:42:57.251Z,1.44
2017-05-16T16:45:23.871Z,1.30
2017-05-16T16:47:50.511Z,1.30
2017-05-16T16:50:17.143Z,1.30
2017-05-16T16:52:43.804Z,1.14
2017-05-16T16:55:10.726Z,2.00
2017-05-16T16:57:37.443Z,1.40
2017-05-16T17:00:04.091Z,2.02
2017-05-16T17:02:30.847Z,1.28
2017-05-16T17:05:01.244Z,1.38
2017-05-16T17:10:06.423Z,1.00
2017-05-16T17:12:33.072Z,1.42
2017-05-16T17:14:59.684Z,1.16
2017-05-16T17:17:26.331Z,1.28
2017-05-16T17:19:52.952Z,1.58
2017-05-16T17:22:19.565Z,1.10
2017-05-16T17:24:46.196Z,1.44
2017-05-16T17:27:12.852Z,0.98
2017-05-16T17:29:39.476Z,1.40
2017-05-16T17:32:06.113Z,1.20
2017-05-16T17:37:05.977Z,1.30
2017-05-16T17:39:32.598Z,1.10
2017-05-16T17:41:59.208Z,1.34
2017-05-16T17:44:25.874Z,1.08
2017-05-16T17:46:52.492Z,1.40
2017-05-16T17:49:19.561Z,1.30
2017-05-16T17:51:46.203Z,1.54
2017-05-16T17:54:12.822Z,1.30
2017-05-16T17:56:39.519Z,1.24
2017-05-16T17:59:06.131Z,1.20
2017-05-16T18:01:32.760Z,1.24
2017-05-16T18:03:59.383Z,1.30
2017-05-16T18:06:26.025Z,1.10
2017-05-16T18:08:52.648Z,1.24
2017-05-16T18:11:19.290Z,1.48
2017-05-16T18:13:45.916Z,2.04
2017-05-16T18:16:12.543Z,1.30
2017-05-16T18:18:39.192Z,1.98
2017-05-16T18:21:05.841Z,1.68
2017-05-16T18:23:32.456Z,1.60
2017-05-16T18:25:59.096Z,1.32
2017-05-16T18:28:25.740Z,1.40
2017-05-16T18:30:52.352Z,1.54
2017-05-16T18:33:19.007Z,1.78
2017-05-16T18:35:45.629Z,1.20
2017-05-16T18:38:12.284Z,1.54
2017-05-16T18:40:38.920Z,1.62
2017-05-16T18:43:05.553Z,1.66
2017-05-16T18:45:32.899Z,1.58
2017-05-16T18:47:59.546Z,1.34
2017-05-16T18:50:26.156Z,1.30
2017-05-16T18:52:52.784Z,1.44
2017-05-16T18:55:19.420Z,1.46
2017-05-16T18:57:46.046Z,1.52
2017-05-16T19:00:12.669Z,1.20
2017-05-16T19:02:39.298Z,1.30
2017-05-16T19:05:05.916Z,1.54
2017-05-16T19:07:32.556Z,1.74
2017-05-16T19:09:59.178Z,1.36
2017-05-16T19:12:25.819Z,2.16
2017-05-16T19:14:52.457Z,1.40
2017-05-16T19:17:19.104Z,1.40
2017-05-16T19:19:45.715Z,1.66
2017-05-16T19:22:12.329Z,1.42
2017-05-16T19:24:38.963Z,1.60
2017-05-16T19:27:05.591Z,1.50
2017-05-16T19:29:32.225Z,1.60
2017-05-16T19:31:58.836Z,2.42
2017-05-16T19:34:25.477Z,1.26
2017-05-16T19:36:52.671Z,1.54
2017-05-16T19:39:19.345Z,1.58
2017-05-16T19:41:45.963Z,1.60
2017-05-16T19:44:12.581Z,1.30
2017-05-16T19:46:39.220Z,1.38
2017-05-16T19:49:05.837Z,1.38
2017-05-16T19:51:32.477Z,1.50
2017-05-16T19:53:59.101Z,1.70
2017-05-16T19:56:25.737Z,1.40
2017-05-16T19:58:52.361Z,1.92
2017-05-16T20:01:19.190Z,1.92
2017-05-16T20:03:45.783Z,1.58
2017-05-16T20:06:12.400Z,1.40
2017-05-16T20:08:39.044Z,1.62
2017-05-16T20:11:05.665Z,1.75
2017-05-16T20:13:32.297Z,1.56
2017-05-16T20:15:58.911Z,1.72
2017-05-16T20:18:25.544Z,1.40
2017-05-16T20:20:52.164Z,1.84
2017-05-16T20:23:18.813Z,1.94
2017-05-16T20:25:45.447Z,1.53
2017-05-16T20:28:12.080Z,1.54
2017-05-16T20:30:38.704Z,1.64
2017-05-16T20:33:05.364Z,1.48
2017-05-16T20:35:32.000Z,1.53
2017-05-16T20:37:58.623Z,1.70
2017-05-16T20:40:25.256Z,2.04
2017-05-16T20:42:51.871Z,2.10
2017-05-16T20:45:18.520Z,1.58
2017-05-16T20:47:45.177Z,1.87
2017-05-16T20:50:11.797Z,1.55
2017-05-16T20:52:38.459Z,1.60
2017-05-16T20:55:05.101Z,1.88
2017-05-16T20:57:31.740Z,1.62
2017-05-16T20:59:58.363Z,1.52
2017-05-16T21:02:25.015Z,1.94
2017-05-16T21:04:51.644Z,2.28
2017-05-16T21:07:18.278Z,1.55
2017-05-16T21:09:44.927Z,1.72
2017-05-16T21:12:11.551Z,2.05
2017-05-16T21:14:38.204Z,1.88
2017-05-16T21:17:04.896Z,2.30
2017-05-16T21:19:31.546Z,1.80
2017-05-16T21:21:58.163Z,2.02
2017-05-16T21:24:24.785Z,2.03
2017-05-16T21:26:51.441Z,2.08
2017-05-16T21:29:18.073Z,1.87
2017-05-16T21:31:44.716Z,1.80
2017-05-16T21:34:11.328Z,2.00
2017-05-16T21:36:37.981Z,2.27
2017-05-16T21:39:04.607Z,1.75
2017-05-16T21:41:31.223Z,1.87
2017-05-16T21:43:57.894Z,2.32
2017-05-16T21:46:24.543Z,2.50
2017-05-16T21:48:51.236Z,2.35
2017-05-16T21:51:18.317Z,2.40
2017-05-16T21:53:44.933Z,2.00
2017-05-16T21:56:11.577Z,2.32
2017-05-16T21:58:38.229Z,2.28
2017-05-16T22:01:04.848Z,2.37
2017-05-16T22:03:31.490Z,2.82
2017-05-16T22:05:58.116Z,3.05
2017-05-16T22:08:24.757Z,2.82
2017-05-16T22:10:51.377Z,3.43
2017-05-16T22:13:18.017Z,3.57
2017-05-16T22:15:44.653Z,2.35
2017-05-16T22:18:11.336Z,3.03
2017-05-16T22:20:37.977Z,3.25
2017-05-16T22:23:04.604Z,3.03
2017-05-16T22:25:31.244Z,2.68
2017-05-16T22:27:57.865Z,3.17
2017-05-16T22:30:24.488Z,2.92
2017-05-16T22:32:51.140Z,2.95
2017-05-16T22:35:17.756Z,3.32
2017-05-16T22:37:44.389Z,3.30
2017-05-16T22:40:11.036Z,3.13
2017-05-16T22:42:37.680Z,3.48
2017-05-16T22:45:04.301Z,3.70
2017-05-16T22:47:30.921Z,3.38
2017-05-16T22:49:57.563Z,3.25
2017-05-16T22:52:24.187Z,3.15
2017-05-16T22:54:50.836Z,3.08
2017-05-16T22:57:17.457Z,3.62
2017-05-16T22:59:44.108Z,3.72
2017-05-16T23:02:10.736Z,3.50
2017-05-16T23:04:37.367Z,2.85
2017-05-16T23:07:03.997Z,4.10
2017-05-16T23:09:30.616Z,3.52
2017-05-16T23:11:57.255Z,4.00
2017-05-16T23:14:23.872Z,4.80
2017-05-16T23:16:50.512Z,4.05
2017-05-16T23:19:17.160Z,4.03
2017-05-16T23:21:43.780Z,3.28
2017-05-16T23:24:10.419Z,3.97
2017-05-16T23:26:37.036Z,3.42
2017-05-16T23:29:03.672Z,3.93
2017-05-16T23:31:30.303Z,3.50
2017-05-16T23:33:56.923Z,3.40
2017-05-16T23:36:23.548Z,3.50
2017-05-16T23:38:50.183Z,3.70
2017-05-16T23:41:16.808Z,3.40
2017-05-16T23:43:43.440Z,4.05
2017-05-16T23:46:10.072Z,3.30
2017-05-16T23:48:36.700Z,4.43
2017-05-16T23:51:03.337Z,4.00
2017-05-16T23:53:29.972Z,4.03
2017-05-16T23:55:56.588Z,4.17
2017-05-16T23:58:23.210Z,4.20
